Time;durP1;ratioP1;P1;durP2;ratioP2;P2;SDS_P1;SDS_P2;PMS_P1;PMS_P2;Temp;Humidity;BMP_temperature;BMP_pressure;BME280_temperature;BME280_humidity;BME280_pressure;Samples;Min_cycle;Max_cycle;Signal;HPM_P1;HPM_P2
2022/11/11 00:01:00;;;;;;;0.73;0.73;;;8.20;99.90;;;;;;5004864;28;20205;-63
2022/11/11 00:03:27;;;;;;;0.70;0.70;;;8.20;99.90;;;;;;5001277;28;20237;-64
2022/11/11 00:05:59;;;;;;;0.67;0.67;;;8.20;99.90;;;;;;5002893;28;20280;-63
2022/11/11 00:08:26;;;;;;;0.97;0.90;;;8.20;99.90;;;;;;5007323;28;20228;-64
2022/11/11 00:10:53;;;;;;;0.80;0.80;;;8.30;99.90;;;;;;5016084;28;20205;-62
2022/11/11 00:13:20;;;;;;;0.80;0.80;;;8.20;99.90;;;;;;5005564;28;20208;-64
2022/11/11 00:15:46;;;;;;;0.73;0.73;;;8.20;99.90;;;;;;5009137;28;20207;-64
2022/11/11 00:26:30;;;;;;;0.80;0.80;;;8.10;99.90;;;;;;5013337;28;20209;-64
2022/11/11 00:28:57;;;;;;;0.70;0.70;;;8.00;99.90;;;;;;5011999;28;20764;-64
2022/11/11 00:31:24;;;;;;;1.10;1.00;;;7.90;99.90;;;;;;5008193;28;20214;-63
2022/11/11 00:33:53;;;;;;;0.60;0.60;;;7.80;99.90;;;;;;5006736;28;20208;-65
2022/11/11 00:36:20;;;;;;;0.73;0.73;;;7.70;99.90;;;;;;5010618;28;20208;-65
2022/11/11 00:38:48;;;;;;;0.90;0.90;;;7.70;99.90;;;;;;5009870;28;20316;-66
2022/11/11 00:41:17;;;;;;;0.97;0.73;;;7.70;99.90;;;;;;5010205;28;20205;-64
2022/11/11 00:43:45;;;;;;;0.90;0.90;;;7.70;99.90;;;;;;5008791;28;20309;-64
2022/11/11 00:51:43;;;;;;;0.80;0.80;;;7.80;99.90;;;;;;5012428;28;20209;-64
2022/11/11 00:54:10;;;;;;;1.73;1.00;;;7.80;99.90;;;;;;5013512;28;20232;-63
2022/11/11 00:56:40;;;;;;;0.83;0.70;;;7.80;99.90;;;;;;5014834;28;20244;-65
2022/11/11 00:59:08;;;;;;;0.70;0.70;;;7.80;99.90;;;;;;5009583;28;20255;-64
2022/11/11 01:01:37;;;;;;;0.80;0.80;;;7.80;99.90;;;;;;5013239;28;20212;-64
2022/11/11 01:04:04;;;;;;;0.93;0.93;;;7.80;99.90;;;;;;5013594;28;20218;-63
2022/11/11 01:06:31;;;;;;;0.80;0.80;;;7.70;99.90;;;;;;5013810;28;20211;-64
2022/11/11 01:09:05;;;;;;;0.60;0.60;;;7.70;99.90;;;;;;5013834;28;20229;-66
2022/11/11 01:11:32;;;;;;;0.73;0.73;;;7.70;99.90;;;;;;5010091;28;20210;-64
2022/11/11 01:13:58;;;;;;;0.80;0.80;;;7.60;99.90;;;;;;5013342;28;20193;-64
2022/11/11 01:16:27;;;;;;;0.77;0.77;;;7.60;99.90;;;;;;5011434;28;20265;-63
2022/11/11 01:18:54;;;;;;;0.60;0.60;;;7.70;99.90;;;;;;5005360;28;20308;-64
2022/11/11 01:21:23;;;;;;;0.70;0.70;;;7.60;99.90;;;;;;5008451;28;20202;-64
2022/11/11 01:23:52;;;;;;;0.70;0.70;;;7.70;99.90;;;;;;5005428;28;20231;-65
2022/11/11 01:26:22;;;;;;;0.60;0.60;;;7.60;99.90;;;;;;5003366;28;20202;-64
2022/11/11 01:28:49;;;;;;;0.70;0.70;;;7.60;99.90;;;;;;5012907;28;20228;-63
2022/11/11 01:31:17;;;;;;;0.80;0.80;;;7.60;99.90;;;;;;5013672;28;20303;-63
2022/11/11 01:33:44;;;;;;;0.77;0.77;;;7.70;99.90;;;;;;5013198;28;20197;-64
2022/11/11 01:36:13;;;;;;;0.93;0.93;;;7.70;99.90;;;;;;5010503;28;20292;-64
2022/11/11 01:38:42;;;;;;;0.70;0.70;;;7.60;99.90;;;;;;5012345;28;20265;-63
2022/11/11 01:43:58;;;;;;;0.80;0.80;;;7.60;99.90;;;;;;5008783;28;20220;-63
2022/11/11 01:46:30;;;;;;;0.70;0.70;;;7.60;99.90;;;;;;5014153;28;20687;-63
2022/11/11 01:49:19;;;;;;;0.60;0.60;;;7.50;99.90;;;;;;5009373;28;20877;-63
2022/11/11 01:51:51;;;;;;;0.80;0.80;;;7.50;99.90;;;;;;5013878;28;20224;-63
2022/11/11 01:54:22;;;;;;;1.00;1.00;;;7.50;99.90;;;;;;5013167;28;20280;-64
2022/11/11 01:56:53;;;;;;;0.60;0.60;;;7.40;99.90;;;;;;5015580;28;20201;-62
2022/11/11 01:59:21;;;;;;;0.60;0.60;;;7.30;99.90;;;;;;5015589;28;20237;-64
2022/11/11 02:01:50;;;;;;;0.70;0.70;;;7.40;99.90;;;;;;5017298;28;20224;-63
2022/11/11 02:07:06;;;;;;;0.50;0.50;;;7.50;99.90;;;;;;5012256;28;20204;-64
2022/11/11 02:09:35;;;;;;;0.80;0.80;;;7.50;99.90;;;;;;5009201;28;20209;-64
2022/11/11 02:14:56;;;;;;;0.47;0.47;;;7.50;99.90;;;;;;5014552;28;20200;-63
2022/11/11 02:17:25;;;;;;;0.57;0.57;;;7.40;99.90;;;;;;5012895;28;20221;-63
2022/11/11 02:19:55;;;;;;;0.50;0.50;;;7.40;99.90;;;;;;5004852;28;20212;-64
2022/11/11 02:22:27;;;;;;;0.83;0.60;;;7.20;99.90;;;;;;5011412;28;20204;-63
2022/11/11 02:24:58;;;;;;;0.60;0.60;;;7.20;99.90;;;;;;5009962;28;20220;-67
2022/11/11 02:27:26;;;;;;;0.50;0.50;;;7.20;99.90;;;;;;5016708;28;20257;-62
2022/11/11 02:29:57;;;;;;;0.50;0.50;;;7.20;99.90;;;;;;5012828;28;20296;-63
2022/11/11 02:32:24;;;;;;;0.60;0.60;;;7.00;99.90;;;;;;5012898;28;20213;-65
2022/11/11 02:34:51;;;;;;;0.60;0.60;;;7.10;99.90;;;;;;5014298;28;20197;-63
2022/11/11 02:37:21;;;;;;;0.50;0.50;;;7.10;99.90;;;;;;5011998;28;20256;-63
2022/11/11 02:39:51;;;;;;;0.50;0.50;;;7.10;99.90;;;;;;5011015;28;20281;-63
2022/11/11 02:42:21;;;;;;;0.60;0.60;;;7.10;99.90;;;;;;5013346;28;20259;-63
2022/11/11 02:44:48;;;;;;;0.80;0.80;;;7.20;99.90;;;;;;5010626;28;20225;-63
2022/11/11 02:47:15;;;;;;;1.30;0.63;;;7.20;99.90;;;;;;5011091;28;20221;-64
2022/11/11 02:49:42;;;;;;;0.40;0.40;;;7.20;99.90;;;;;;5014899;28;20668;-63
2022/11/11 02:52:09;;;;;;;0.40;0.40;;;7.30;99.90;;;;;;5010908;28;20293;-63
2022/11/11 02:54:35;;;;;;;0.70;0.70;;;7.40;99.90;;;;;;5013364;28;20201;-63
2022/11/11 02:57:08;;;;;;;0.57;0.57;;;7.30;99.90;;;;;;5011016;28;20686;-63
2022/11/11 02:59:38;;;;;;;0.60;0.60;;;7.30;99.90;;;;;;5007985;28;20297;-64
2022/11/11 03:02:06;;;;;;;0.60;0.60;;;7.30;99.90;;;;;;5011465;28;20292;-64
2022/11/11 03:04:34;;;;;;;0.60;0.60;;;7.20;99.90;;;;;;5006194;28;20229;-64
2022/11/11 03:07:01;;;;;;;0.73;0.73;;;7.30;99.90;;;;;;5006333;28;20213;-64
2022/11/11 03:09:28;;;;;;;0.60;0.60;;;7.20;99.90;;;;;;5012260;28;20201;-64
2022/11/11 03:11:55;;;;;;;0.37;0.37;;;7.20;99.90;;;;;;5007907;28;20208;-64
2022/11/11 03:14:22;;;;;;;0.80;0.80;;;7.20;99.90;;;;;;5012525;28;20198;-63
2022/11/11 03:19:35;;;;;;;0.60;0.60;;;7.10;99.90;;;;;;5009126;28;20209;-63
2022/11/11 03:22:03;;;;;;;0.50;0.50;;;7.10;99.90;;;;;;5014098;28;20671;-64
2022/11/11 03:27:11;;;;;;;0.40;0.40;;;7.10;99.90;;;;;;5012405;28;20204;-64
2022/11/11 03:29:38;;;;;;;0.60;0.60;;;7.10;99.90;;;;;;5009800;28;20625;-64
2022/11/11 03:32:07;;;;;;;0.70;0.70;;;7.10;99.90;;;;;;5008936;28;20217;-63
2022/11/11 03:34:33;;;;;;;0.70;0.70;;;7.10;99.90;;;;;;5000706;28;20272;-64
2022/11/11 03:39:45;;;;;;;0.60;0.60;;;7.20;99.90;;;;;;5010806;28;20568;-66
2022/11/11 03:42:11;;;;;;;0.50;0.50;;;7.10;99.90;;;;;;5005611;28;20572;-64
2022/11/11 03:44:38;;;;;;;0.60;0.60;;;7.10;99.90;;;;;;5006204;28;20225;-63
2022/11/11 03:47:07;;;;;;;0.60;0.60;;;7.10;99.90;;;;;;5012938;28;20269;-64
2022/11/11 03:49:34;;;;;;;0.60;0.60;;;7.10;99.90;;;;;;5011208;28;20229;-62
2022/11/11 03:52:00;;;;;;;0.60;0.60;;;7.20;99.90;;;;;;5014087;28;20292;-63
2022/11/11 03:54:27;;;;;;;1.47;0.50;;;7.20;99.90;;;;;;5009897;28;20208;-64
2022/11/11 03:57:29;;;;;;;0.50;0.50;;;7.20;99.90;;;;;;5015085;28;20205;-63
2022/11/11 03:59:43;;;;;;;0.33;0.33;;;7.20;99.90;;;;;;5009503;28;20210;-64
2022/11/11 04:10:36;;;;;;;0.73;0.73;;;7.20;99.90;;;;;;5013677;28;20267;-64
2022/11/11 04:16:06;;;;;;;0.97;0.80;;;7.20;99.90;;;;;;5012147;28;20205;-64
2022/11/11 04:25:47;;;;;;;1.13;0.63;;;7.20;99.90;;;;;;5010886;28;20336;-65
2022/11/11 04:26:53;;;;;;;0.57;0.57;;;7.20;99.90;;;;;;5009020;28;20232;-64
2022/11/11 04:29:29;;;;;;;0.80;0.60;;;7.20;99.90;;;;;;5016648;28;20285;-64
2022/11/11 04:34:47;;;;;;;0.50;0.50;;;7.20;99.90;;;;;;5017532;28;20416;-65
2022/11/11 04:37:14;;;;;;;0.70;0.70;;;7.20;99.90;;;;;;5010262;28;20320;-65
2022/11/11 04:42:26;;;;;;;0.50;0.50;;;7.20;99.90;;;;;;5014920;28;20288;-65
2022/11/11 04:47:38;;;;;;;0.50;0.50;;;7.20;99.90;;;;;;5016916;28;20231;-65
2022/11/11 04:50:08;;;;;;;0.60;0.60;;;7.20;99.90;;;;;;5015281;28;20265;-65
2022/11/11 04:52:34;;;;;;;0.53;0.53;;;7.30;99.90;;;;;;5013981;28;20212;-65
2022/11/11 04:57:47;;;;;;;0.70;0.50;;;7.40;99.90;;;;;;5015249;28;20279;-63
2022/11/11 05:00:16;;;;;;;0.57;0.57;;;7.40;99.90;;;;;;5013834;28;20236;-64
2022/11/11 05:08:54;;;;;;;0.57;0.57;;;7.40;99.90;;;;;;5010819;28;20296;-64
2022/11/11 05:11:01;;;;;;;0.70;0.70;;;7.40;99.90;;;;;;5005633;28;20285;-64
2022/11/11 05:21:47;;;;;;;0.80;0.80;;;7.10;99.90;;;;;;5016659;28;20208;-66
2022/11/11 05:26:59;;;;;;;0.60;0.60;;;7.00;99.90;;;;;;5009444;28;20267;-64
2022/11/11 05:29:26;;;;;;;0.67;0.67;;;7.00;99.90;;;;;;5011420;28;20896;-66
2022/11/11 05:31:52;;;;;;;0.50;0.50;;;7.00;99.90;;;;;;5011779;28;20207;-65
2022/11/11 05:34:19;;;;;;;0.67;0.67;;;6.90;99.90;;;;;;5012848;28;20739;-67
2022/11/11 05:36:48;;;;;;;0.80;0.80;;;6.90;99.90;;;;;;5012830;28;20229;-66
2022/11/11 05:39:15;;;;;;;0.53;0.53;;;6.80;99.90;;;;;;5013493;28;20236;-65
2022/11/11 05:41:42;;;;;;;0.60;0.60;;;6.80;99.90;;;;;;5013216;28;20656;-67
2022/11/11 05:44:08;;;;;;;0.70;0.70;;;6.70;99.90;;;;;;5014745;28;20331;-64
2022/11/11 05:46:35;;;;;;;0.50;0.50;;;6.70;99.90;;;;;;5012103;28;20211;-65
2022/11/11 05:49:17;;;;;;;0.60;0.60;;;6.70;99.90;;;;;;5016113;28;20251;-65
2022/11/11 05:51:45;;;;;;;0.57;0.57;;;6.70;99.90;;;;;;5014480;28;20330;-65
2022/11/11 05:54:14;;;;;;;0.53;0.53;;;6.60;99.90;;;;;;5015416;28;20578;-65
2022/11/11 05:56:41;;;;;;;0.60;0.60;;;6.60;99.90;;;;;;5015915;28;20201;-65
2022/11/11 05:59:08;;;;;;;0.63;0.63;;;6.60;99.90;;;;;;5015497;28;20220;-67
2022/11/11 06:01:35;;;;;;;0.80;0.80;;;6.60;99.90;;;;;;5013330;28;20373;-64
2022/11/11 06:04:02;;;;;;;0.83;0.83;;;6.50;99.90;;;;;;5014670;28;20710;-67
2022/11/11 06:06:29;;;;;;;0.60;0.60;;;6.50;99.90;;;;;;5015618;28;20216;-64
2022/11/11 06:08:56;;;;;;;0.90;0.90;;;6.50;99.90;;;;;;5016150;28;20225;-67
2022/11/11 06:11:26;;;;;;;0.70;0.70;;;6.50;99.90;;;;;;5015482;28;20208;-66
2022/11/11 06:13:53;;;;;;;0.60;0.60;;;6.50;99.90;;;;;;5011413;28;20201;-66
2022/11/11 06:16:20;;;;;;;0.70;0.70;;;6.50;99.90;;;;;;5012571;28;20288;-67
2022/11/11 06:18:47;;;;;;;0.70;0.70;;;6.50;99.90;;;;;;5012754;28;20220;-63
2022/11/11 06:21:14;;;;;;;1.00;1.00;;;6.40;99.90;;;;;;5011695;28;20211;-66
2022/11/11 06:23:41;;;;;;;1.03;1.03;;;6.40;99.90;;;;;;5014179;28;20219;-67
2022/11/11 06:26:13;;;;;;;1.60;0.97;;;6.30;99.90;;;;;;5015598;28;20205;-66
2022/11/11 06:28:43;;;;;;;0.87;0.87;;;6.30;99.90;;;;;;5014294;28;20231;-66
2022/11/11 06:31:11;;;;;;;0.90;0.90;;;6.20;99.90;;;;;;5011089;28;20209;-66
2022/11/11 06:33:39;;;;;;;0.80;0.80;;;6.20;99.90;;;;;;5013444;28;20212;-66
2022/11/11 06:36:07;;;;;;;0.50;0.50;;;6.20;99.90;;;;;;5014500;28;20201;-66
2022/11/11 06:38:34;;;;;;;0.80;0.80;;;6.30;99.90;;;;;;5015279;28;20264;-66
2022/11/11 06:41:00;;;;;;;1.00;1.00;;;6.30;99.90;;;;;;5015216;28;20300;-65
2022/11/11 06:43:27;;;;;;;0.80;0.80;;;6.40;99.90;;;;;;5014273;28;20201;-65
2022/11/11 06:45:56;;;;;;;0.70;0.70;;;6.50;99.90;;;;;;5018500;28;20221;-66
2022/11/11 06:48:24;;;;;;;0.70;0.70;;;6.50;99.90;;;;;;5015239;28;20252;-67
2022/11/11 06:50:51;;;;;;;0.87;0.87;;;6.50;99.90;;;;;;5014717;28;20216;-67
2022/11/11 06:53:20;;;;;;;0.60;0.60;;;6.60;99.90;;;;;;5015345;28;20233;-64
2022/11/11 06:55:47;;;;;;;0.80;0.80;;;6.70;99.90;;;;;;5013716;28;20644;-66
2022/11/11 06:58:16;;;;;;;0.80;0.80;;;6.70;99.90;;;;;;5008642;28;20221;-66
2022/11/11 07:00:43;;;;;;;0.83;0.80;;;6.70;99.90;;;;;;5016871;28;20689;-66
2022/11/11 07:03:14;;;;;;;0.80;0.80;;;6.70;99.90;;;;;;5012298;28;20289;-65
2022/11/11 07:05:42;;;;;;;0.87;0.87;;;6.80;99.90;;;;;;5015736;28;20222;-63
2022/11/11 07:08:11;;;;;;;0.60;0.60;;;6.80;99.90;;;;;;5017169;28;20312;-66
2022/11/11 07:10:40;;;;;;;0.70;0.70;;;6.90;99.90;;;;;;5015013;28;20232;-67
2022/11/11 07:13:08;;;;;;;0.80;0.80;;;6.90;99.90;;;;;;5014145;28;20288;-67
2022/11/11 07:15:35;;;;;;;0.80;0.80;;;6.90;99.90;;;;;;5014149;28;20205;-65
2022/11/11 07:18:02;;;;;;;0.70;0.70;;;7.00;99.90;;;;;;5013940;28;20232;-66
2022/11/11 07:20:31;;;;;;;0.80;0.80;;;7.00;99.90;;;;;;5014203;28;20671;-64
2022/11/11 07:22:58;;;;;;;0.88;0.88;;;7.00;99.90;;;;;;5008059;28;20785;-65
2022/11/11 07:25:25;;;;;;;1.00;1.00;;;7.10;99.90;;;;;;5019414;28;20220;-64
2022/11/11 07:27:51;;;;;;;0.80;0.80;;;7.20;99.90;;;;;;5015520;28;20311;-65
2022/11/11 07:30:19;;;;;;;0.85;0.85;;;7.20;99.90;;;;;;5014037;28;20201;-64
2022/11/11 07:32:47;;;;;;;0.80;0.80;;;7.30;99.90;;;;;;5010872;28;20206;-65
2022/11/11 07:35:14;;;;;;;1.00;1.00;;;7.30;99.90;;;;;;5012959;28;20201;-64
2022/11/11 07:37:43;;;;;;;1.03;1.03;;;7.40;99.90;;;;;;5013222;28;20240;-64
2022/11/11 07:40:12;;;;;;;0.90;0.90;;;7.40;99.90;;;;;;5021741;28;20213;-65
2022/11/11 07:42:39;;;;;;;0.90;0.90;;;7.50;99.90;;;;;;5013396;28;20216;-62
2022/11/11 07:45:07;;;;;;;0.97;0.97;;;7.50;99.90;;;;;;5020136;28;20217;-65
2022/11/11 07:47:34;;;;;;;0.80;0.80;;;7.50;99.90;;;;;;5013467;28;20710;-64
2022/11/11 07:50:01;;;;;;;0.80;0.80;;;7.60;99.90;;;;;;5013623;28;20233;-63
2022/11/11 07:52:28;;;;;;;1.50;1.40;;;7.70;99.90;;;;;;5013299;28;20205;-64
2022/11/11 07:54:56;;;;;;;1.60;1.50;;;7.80;99.90;;;;;;5012418;28;20197;-63
2022/11/11 07:57:23;;;;;;;1.40;1.40;;;7.90;99.90;;;;;;5020207;28;20221;-64
2022/11/11 07:59:50;;;;;;;1.10;1.10;;;7.90;99.90;;;;;;5018953;28;20204;-65
2022/11/11 08:02:17;;;;;;;1.20;1.20;;;7.80;99.90;;;;;;5020195;28;20233;-62
2022/11/11 08:04:44;;;;;;;1.13;1.13;;;7.80;99.90;;;;;;5012469;28;20228;-63
2022/11/11 08:07:11;;;;;;;1.10;1.10;;;7.80;99.90;;;;;;5013417;28;20220;-62
2022/11/11 08:09:38;;;;;;;0.90;0.90;;;7.70;99.90;;;;;;5013038;28;20296;-62
2022/11/11 08:14:51;;;;;;;1.17;1.17;;;7.50;99.90;;;;;;5012047;28;20580;-63
2022/11/11 08:17:17;;;;;;;1.27;1.27;;;7.60;99.90;;;;;;5018145;28;20240;-64
2022/11/11 08:19:44;;;;;;;1.00;1.00;;;7.70;99.90;;;;;;5013729;28;20202;-64
2022/11/11 08:22:11;;;;;;;1.10;1.10;;;7.90;99.90;;;;;;5013054;28;20203;-65
2022/11/11 08:24:38;;;;;;;1.73;1.30;;;8.00;99.90;;;;;;5019213;28;20721;-64
2022/11/11 08:27:06;;;;;;;1.37;1.23;;;8.20;99.90;;;;;;5015706;28;20228;-64
2022/11/11 08:29:33;;;;;;;1.08;1.08;;;8.30;99.90;;;;;;5012786;28;20683;-65
2022/11/11 08:31:59;;;;;;;1.20;1.20;;;8.40;99.90;;;;;;5018456;28;20276;-63
2022/11/11 08:34:26;;;;;;;1.00;1.00;;;8.60;99.90;;;;;;5018956;28;20205;-64
2022/11/11 08:36:53;;;;;;;1.00;1.00;;;8.80;99.90;;;;;;5019563;28;20211;-64
2022/11/11 08:39:20;;;;;;;0.90;0.90;;;8.90;99.90;;;;;;5018999;28;20207;-64
2022/11/11 08:41:47;;;;;;;0.77;0.77;;;9.10;99.90;;;;;;5014054;28;20205;-64
2022/11/11 08:44:15;;;;;;;0.73;0.73;;;9.10;99.90;;;;;;5016585;28;20690;-64
2022/11/11 08:46:42;;;;;;;0.87;0.87;;;9.30;99.90;;;;;;5013565;28;20614;-63
2022/11/11 08:49:10;;;;;;;0.90;0.90;;;9.40;99.90;;;;;;5005280;28;20233;-63
2022/11/11 08:51:37;;;;;;;0.87;0.87;;;9.50;99.90;;;;;;5008851;28;20201;-64
2022/11/11 08:54:04;;;;;;;0.77;0.77;;;9.70;99.90;;;;;;5009127;28;20268;-66
2022/11/11 08:56:31;;;;;;;0.90;0.90;;;9.80;99.90;;;;;;5009796;28;20204;-63
2022/11/11 08:58:58;;;;;;;1.00;1.00;;;9.90;99.90;;;;;;5003654;28;20304;-66
2022/11/11 09:01:26;;;;;;;0.93;0.93;;;10.00;99.90;;;;;;5007889;28;20212;-65
2022/11/11 09:03:53;;;;;;;1.00;1.00;;;10.20;99.90;;;;;;5003577;28;20224;-64
2022/11/11 09:06:20;;;;;;;1.00;1.00;;;10.20;99.90;;;;;;5006718;28;20232;-66
2022/11/11 09:08:47;;;;;;;1.07;1.07;;;10.20;99.90;;;;;;5003202;28;20599;-63
2022/11/11 09:11:14;;;;;;;1.00;1.00;;;10.20;99.90;;;;;;5012611;28;20215;-63
2022/11/11 09:13:40;;;;;;;1.30;1.30;;;10.20;99.90;;;;;;5006707;28;20201;-66
2022/11/11 09:16:08;;;;;;;1.10;1.10;;;10.20;99.90;;;;;;5005502;28;20285;-64
2022/11/11 09:18:37;;;;;;;1.30;1.20;;;10.10;99.90;;;;;;5004194;28;20229;-63
2022/11/11 09:21:04;;;;;;;1.10;1.10;;;10.10;99.90;;;;;;5009977;28;20317;-64
2022/11/11 09:23:30;;;;;;;1.10;1.10;;;10.00;99.90;;;;;;5007463;28;20220;-64
2022/11/11 09:26:02;;;;;;;1.07;1.07;;;10.10;99.90;;;;;;5007157;28;20945;-66
2022/11/11 09:28:30;;;;;;;1.20;1.10;;;10.10;99.90;;;;;;5006667;28;20227;-64
2022/11/11 09:30:59;;;;;;;1.00;1.00;;;10.10;99.90;;;;;;5009633;28;20253;-68
2022/11/11 09:33:26;;;;;;;1.10;1.10;;;10.20;99.90;;;;;;5004911;28;20198;-64
2022/11/11 09:35:54;;;;;;;1.10;1.10;;;10.00;99.90;;;;;;5006426;28;20201;-66
2022/11/11 09:38:21;;;;;;;1.20;1.20;;;10.00;99.90;;;;;;5008712;28;20241;-65
2022/11/11 09:41:04;;;;;;;1.00;1.00;;;9.90;99.90;;;;;;5009441;28;20572;-64
2022/11/11 09:43:42;;;;;;;1.00;1.00;;;9.70;99.90;;;;;;5009454;28;20232;-66
2022/11/11 09:46:22;;;;;;;1.40;1.30;;;9.70;99.90;;;;;;5005415;28;20336;-63
2022/11/11 09:49:22;;;;;;;1.40;1.30;;;9.90;99.90;;;;;;5009265;28;20319;-62
2022/11/11 09:51:55;;;;;;;1.33;1.23;;;10.00;99.90;;;;;;5008677;28;20215;-63
2022/11/11 09:54:31;;;;;;;1.27;1.20;;;10.20;99.90;;;;;;5009224;28;20225;-64
2022/11/11 09:57:02;;;;;;;1.30;1.30;;;10.20;99.90;;;;;;5001832;28;20212;-63
2022/11/11 09:59:35;;;;;;;1.90;1.80;;;10.20;99.90;;;;;;5009764;28;20288;-64
2022/11/11 10:02:02;;;;;;;1.60;1.50;;;10.30;99.90;;;;;;5009407;28;20209;-66
2022/11/11 10:04:33;;;;;;;1.47;1.40;;;10.20;99.90;;;;;;5008748;28;20209;-64
2022/11/11 10:07:06;;;;;;;1.70;1.60;;;10.20;99.90;;;;;;5007896;28;21010;-65
2022/11/11 10:09:40;;;;;;;1.47;1.47;;;10.20;99.90;;;;;;5009240;28;20304;-65
2022/11/11 10:12:11;;;;;;;1.77;1.67;;;10.20;99.90;;;;;;5014950;28;20204;-65
2022/11/11 10:14:41;;;;;;;1.70;1.60;;;10.20;99.90;;;;;;5008863;28;20213;-65
2022/11/11 10:17:18;;;;;;;1.60;1.50;;;10.20;99.90;;;;;;5006744;28;20320;-64
2022/11/11 10:19:54;;;;;;;1.60;1.50;;;10.30;99.90;;;;;;5007502;28;20211;-66
2022/11/11 10:22:27;;;;;;;1.80;1.70;;;10.30;99.90;;;;;;5009259;28;20201;-67
2022/11/11 10:25:07;;;;;;;1.70;1.60;;;10.40;99.90;;;;;;5006213;28;20202;-66
2022/11/11 10:27:34;;;;;;;1.40;1.40;;;10.40;99.90;;;;;;5010591;28;20229;-63
2022/11/11 10:30:08;;;;;;;1.53;1.50;;;10.50;99.90;;;;;;5012491;28;20296;-65
2022/11/11 10:32:36;;;;;;;1.30;1.30;;;10.50;99.90;;;;;;5011738;28;20304;-65
2022/11/11 10:35:16;;;;;;;1.80;1.70;;;10.60;99.90;;;;;;5010734;28;20292;-64
2022/11/11 10:37:45;;;;;;;1.80;1.70;;;10.70;99.90;;;;;;5006349;28;20762;-65
2022/11/11 10:40:18;;;;;;;3.43;1.63;;;10.70;99.90;;;;;;5011718;28;20312;-65
2022/11/11 10:42:45;;;;;;;1.70;1.60;;;10.90;99.90;;;;;;5011618;28;20252;-64
2022/11/11 10:45:17;;;;;;;1.63;1.53;;;10.90;99.90;;;;;;5009025;28;20688;-65
2022/11/11 10:47:52;;;;;;;1.80;1.70;;;11.00;99.90;;;;;;5012377;28;20233;-64
2022/11/11 10:50:26;;;;;;;1.70;1.60;;;11.00;99.90;;;;;;5007293;28;20208;-63
2022/11/11 10:53:07;;;;;;;1.43;1.33;;;11.00;99.90;;;;;;5011352;28;20201;-67
2022/11/11 10:55:41;;;;;;;1.40;1.40;;;11.10;99.90;;;;;;5008912;28;20209;-65
2022/11/11 10:58:16;;;;;;;1.60;1.50;;;11.30;99.90;;;;;;5009209;28;20233;-67
2022/11/11 11:00:45;;;;;;;1.60;1.50;;;11.50;99.90;;;;;;5008184;28;20307;-65
2022/11/11 11:03:19;;;;;;;1.30;1.30;;;11.60;99.90;;;;;;5006920;28;20288;-67
2022/11/11 11:05:49;;;;;;;1.33;1.33;;;11.70;99.90;;;;;;5010011;28;20245;-66
2022/11/11 11:08:21;;;;;;;1.30;1.30;;;11.70;99.90;;;;;;5005265;28;20218;-66
2022/11/11 11:10:51;;;;;;;1.47;1.43;;;11.80;99.90;;;;;;5010014;28;20288;-66
2022/11/11 11:13:25;;;;;;;1.37;1.37;;;11.90;99.90;;;;;;5007664;28;20207;-67
2022/11/11 11:15:58;;;;;;;1.40;1.40;;;11.90;99.90;;;;;;5013779;28;20198;-66
2022/11/11 11:18:25;;;;;;;1.50;1.40;;;12.00;99.90;;;;;;5013362;28;20708;-65
2022/11/11 11:20:57;;;;;;;2.10;1.47;;;11.90;99.90;;;;;;5011472;28;20250;-65
2022/11/11 11:23:41;;;;;;;1.50;1.40;;;11.90;99.90;;;;;;5010511;28;20325;-65
2022/11/11 11:26:09;;;;;;;1.50;1.40;;;12.00;99.90;;;;;;5013312;28;20600;-66
2022/11/11 11:28:54;;;;;;;1.50;1.40;;;11.90;99.90;;;;;;5010222;28;20241;-65
2022/11/11 11:31:35;;;;;;;1.80;1.70;;;11.90;99.90;;;;;;5009963;28;20212;-65
2022/11/11 11:34:02;;;;;;;1.87;1.77;;;11.90;99.90;;;;;;5009207;28;20224;-65
2022/11/11 11:36:29;;;;;;;1.33;1.33;;;11.90;99.90;;;;;;5011110;28;20205;-66
2022/11/11 11:38:59;;;;;;;1.30;1.30;;;12.00;99.90;;;;;;5008010;28;20236;-65
2022/11/11 11:41:38;;;;;;;1.50;1.50;;;12.10;99.90;;;;;;5009195;28;20541;-66
2022/11/11 11:44:25;;;;;;;1.43;1.37;;;12.20;99.90;;;;;;5012400;28;20584;-66
2022/11/11 11:46:59;;;;;;;1.70;1.60;;;12.20;99.90;;;;;;5013356;28;20607;-66
2022/11/11 11:49:41;;;;;;;2.00;1.90;;;12.20;99.90;;;;;;5013748;28;20201;-66
2022/11/11 11:52:15;;;;;;;1.60;1.50;;;12.20;99.90;;;;;;5002151;28;20235;-67
2022/11/11 11:54:55;;;;;;;1.50;1.50;;;12.20;99.90;;;;;;5013377;28;20205;-67
2022/11/11 11:57:37;;;;;;;1.30;1.30;;;12.30;99.90;;;;;;5010361;28;20638;-67
2022/11/11 12:00:07;;;;;;;1.70;1.60;;;12.30;99.90;;;;;;5002039;28;20650;-66
2022/11/11 12:02:56;;;;;;;1.50;1.50;;;12.20;99.90;;;;;;5011153;28;20213;-66
2022/11/11 12:05:28;;;;;;;1.80;1.70;;;12.30;99.90;;;;;;5005495;28;20293;-65
2022/11/11 12:08:11;;;;;;;1.60;1.50;;;12.30;99.90;;;;;;5015965;28;20256;-63
2022/11/11 12:10:49;;;;;;;1.37;1.37;;;12.40;99.90;;;;;;5016587;28;20285;-63
2022/11/11 12:13:29;;;;;;;1.80;1.70;;;12.40;99.90;;;;;;5015907;28;20205;-66
2022/11/11 12:16:04;;;;;;;1.47;1.47;;;12.40;99.90;;;;;;5013823;28;20284;-65
2022/11/11 12:18:50;;;;;;;1.60;1.50;;;12.40;99.90;;;;;;5014841;28;20225;-64
2022/11/11 12:21:21;;;;;;;1.83;1.73;;;12.50;99.90;;;;;;5011570;28;20399;-66
2022/11/11 12:23:58;;;;;;;1.50;1.50;;;12.40;99.90;;;;;;5016256;28;20236;-64
2022/11/11 12:26:35;;;;;;;1.60;1.50;;;12.40;99.90;;;;;;5012265;28;20233;-65
2022/11/11 12:29:21;;;;;;;1.67;1.57;;;12.30;99.90;;;;;;5012888;28;20225;-63
2022/11/11 12:32:06;;;;;;;1.40;1.40;;;12.30;99.90;;;;;;5018848;28;20682;-65
2022/11/11 12:35:06;;;;;;;1.70;1.60;;;12.30;99.90;;;;;;5018285;28;20291;-64
2022/11/11 12:37:43;;;;;;;1.40;1.40;;;12.30;99.90;;;;;;5018343;28;20233;-66
2022/11/11 12:40:21;;;;;;;1.73;1.63;;;12.20;99.90;;;;;;5018948;28;20200;-64
2022/11/11 12:43:03;;;;;;;1.63;1.57;;;12.30;99.90;;;;;;5021088;28;20232;-65
2022/11/11 12:45:37;;;;;;;1.43;1.43;;;12.20;99.90;;;;;;5024360;28;20232;-65
2022/11/11 12:48:11;;;;;;;1.40;1.40;;;12.30;99.90;;;;;;5011234;28;20259;-65
2022/11/11 12:50:45;;;;;;;1.80;1.50;;;12.30;99.90;;;;;;5018256;28;20667;-63
2022/11/11 12:53:24;;;;;;;1.50;1.50;;;12.30;99.90;;;;;;5018573;28;20316;-65
2022/11/11 12:56:00;;;;;;;1.60;1.50;;;12.30;99.90;;;;;;5022634;28;20197;-66
2022/11/11 12:58:38;;;;;;;1.50;1.40;;;12.30;99.90;;;;;;5017011;28;20231;-63
2022/11/11 13:01:20;;;;;;;1.30;1.30;;;12.30;99.90;;;;;;5018543;28;20248;-63
2022/11/11 13:04:28;;;;;;;1.50;1.40;;;12.20;99.90;;;;;;5016864;28;20205;-63
2022/11/11 13:07:26;;;;;;;1.50;1.50;;;12.20;99.90;;;;;;5018037;28;20209;-64
2022/11/11 13:10:19;;;;;;;1.40;1.40;;;12.20;99.90;;;;;;5015745;28;20202;-64
2022/11/11 13:12:54;;;;;;;1.90;1.80;;;12.10;99.90;;;;;;5016299;28;20633;-64
2022/11/11 13:15:24;;;;;;;1.60;1.50;;;12.10;99.90;;;;;;5014521;28;20205;-63
2022/11/11 13:17:52;;;;;;;1.80;1.70;;;12.10;99.90;;;;;;5015122;28;20769;-66
2022/11/11 13:20:35;;;;;;;1.60;1.50;;;12.10;99.90;;;;;;5011817;28;20244;-63
2022/11/11 13:23:02;;;;;;;1.47;1.47;;;12.00;99.90;;;;;;5010883;28;20223;-64
2022/11/11 13:25:32;;;;;;;1.40;1.40;;;12.10;99.90;;;;;;5013466;28;20943;-66
2022/11/11 13:28:05;;;;;;;1.63;1.53;;;12.20;99.90;;;;;;5008189;28;20229;-66
2022/11/11 13:31:03;;;;;;;1.53;1.43;;;12.10;99.90;;;;;;5012657;28;20201;-64
2022/11/11 13:33:38;;;;;;;1.80;1.70;;;12.20;99.90;;;;;;5016330;28;20312;-66
2022/11/11 13:36:09;;;;;;;1.57;1.47;;;12.20;99.90;;;;;;5013257;28;20222;-64
2022/11/11 13:38:39;;;;;;;1.67;1.57;;;12.30;99.90;;;;;;5013664;28;20315;-64
2022/11/11 13:41:07;;;;;;;1.70;1.60;;;12.30;99.90;;;;;;5011632;28;20212;-63
2022/11/11 13:43:42;;;;;;;1.30;1.30;;;12.30;99.90;;;;;;5014774;28;20209;-64
2022/11/11 13:46:30;;;;;;;1.60;1.50;;;12.20;99.90;;;;;;5010299;28;20281;-64
2022/11/11 13:48:58;;;;;;;1.73;1.63;;;12.30;99.90;;;;;;5013194;28;20717;-65
2022/11/11 13:51:30;;;;;;;1.53;1.53;;;12.40;99.90;;;;;;5013047;28;20206;-64
2022/11/11 13:53:59;;;;;;;1.70;1.60;;;12.40;99.90;;;;;;5014993;28;20240;-64
2022/11/11 13:56:28;;;;;;;1.93;1.77;;;12.30;99.90;;;;;;5009213;28;20198;-66
2022/11/11 13:58:56;;;;;;;1.53;1.53;;;12.10;99.90;;;;;;5018519;28;20260;-66
2022/11/11 14:01:32;;;;;;;1.60;1.60;;;12.20;99.90;;;;;;5013425;28;20304;-67
2022/11/11 14:04:02;;;;;;;1.60;1.50;;;12.20;99.90;;;;;;5013866;28;20198;-65
2022/11/11 14:06:48;;;;;;;1.60;1.50;;;12.20;99.90;;;;;;5015479;28;20221;-65
2022/11/11 14:09:48;;;;;;;1.80;1.70;;;12.20;99.90;;;;;;5011910;28;20252;-66
2022/11/11 14:12:37;;;;;;;1.47;1.47;;;12.10;99.90;;;;;;5011786;28;20284;-67
2022/11/11 14:15:06;;;;;;;3.03;1.80;;;12.10;99.90;;;;;;5008210;28;20726;-66
2022/11/11 14:17:44;;;;;;;1.90;1.80;;;12.10;99.90;;;;;;5007543;28;20221;-67
2022/11/11 14:20:37;;;;;;;2.00;1.90;;;12.00;99.90;;;;;;5006285;28;20201;-67
2022/11/11 14:23:24;;;;;;;2.27;2.10;;;12.00;99.90;;;;;;5014380;28;20214;-68
2022/11/11 14:26:12;;;;;;;1.97;1.87;;;11.90;99.90;;;;;;5009667;28;20587;-67
2022/11/11 14:28:50;;;;;;;2.00;1.90;;;11.80;99.90;;;;;;5008399;28;20226;-71
2022/11/11 14:32:06;;;;;;;2.07;1.97;;;11.80;99.90;;;;;;5011925;28;20209;-67